createdAt,value
2019-06-07T00:00:49.541Z,26.76
2019-06-07T00:01:49.973Z,25.13
2019-06-07T00:03:44.558Z,25.61
2019-06-07T00:04:44.988Z,26.19
2019-06-07T00:06:39.570Z,28.67
2019-06-07T00:07:39.989Z,28.49
2019-06-07T00:09:34.555Z,30.97
2019-06-07T00:10:37.037Z,31.45
2019-06-07T00:12:30.538Z,32.03
2019-06-07T00:13:30.974Z,32.03
2019-06-07T00:15:29.174Z,30.51
2019-06-07T00:16:25.972Z,30.01
2019-06-07T00:18:25.688Z,30.79
2019-06-07T00:19:20.975Z,30.79
2019-06-07T00:21:17.800Z,27.72
2019-06-07T00:22:25.361Z,28.00
2019-06-07T00:24:14.024Z,29.63
2019-06-07T00:25:15.086Z,29.63
2019-06-07T00:27:05.556Z,26.94
2019-06-07T00:28:05.972Z,28.09
2019-06-07T00:30:00.543Z,30.58
2019-06-07T00:31:00.998Z,29.91
2019-06-07T00:32:55.615Z,31.45
2019-06-07T00:33:56.263Z,31.26
2019-06-07T00:35:50.548Z,33.75
2019-06-07T00:36:50.979Z,34.90
2019-06-07T00:38:45.551Z,32.03
2019-06-07T00:39:45.983Z,31.07
2019-06-07T00:41:40.570Z,33.56
2019-06-07T00:42:40.979Z,32.60
2019-06-07T00:44:35.552Z,38.83
2019-06-07T00:45:35.986Z,37.87
2019-06-07T00:47:30.567Z,43.73
2019-06-07T00:48:32.963Z,43.24
2019-06-07T00:50:25.566Z,43.73
2019-06-07T00:51:25.989Z,43.63
2019-06-07T00:53:30.995Z,43.24
2019-06-07T00:54:22.502Z,44.49
2019-06-07T00:56:16.301Z,42.96
2019-06-07T00:57:16.717Z,43.07
2019-06-07T00:59:13.445Z,46.14
2019-06-07T01:00:12.314Z,45.09
2019-06-07T01:02:05.664Z,48.44
2019-06-07T01:03:05.986Z,48.43
2019-06-07T01:05:02.538Z,49.12
2019-06-07T01:06:02.981Z,48.13
2019-06-07T01:07:03.410Z,50.56
2019-06-07T01:08:03.957Z,48.44
2019-06-07T01:09:04.269Z,48.54
2019-06-07T01:10:04.707Z,45.83
2019-06-07T01:11:05.144Z,46.70
2019-06-07T01:12:05.578Z,46.31
2019-06-07T01:13:06.012Z,43.46
2019-06-07T01:14:06.451Z,44.32
2019-06-07T01:15:06.884Z,44.30
2019-06-07T01:16:07.319Z,41.63
2019-06-07T01:17:23.579Z,39.50
2019-06-07T01:19:08.622Z,36.34
2019-06-07T01:20:09.058Z,35.77
2019-06-07T01:21:09.493Z,33.56
2019-06-07T01:22:09.954Z,32.51
2019-06-07T01:23:51.837Z,30.87
2019-06-07T01:24:12.500Z,30.49
2019-06-07T01:25:11.239Z,30.30
2019-06-07T01:26:11.670Z,28.57
2019-06-07T01:27:12.109Z,28.09
2019-06-07T01:28:12.543Z,29.05
2019-06-07T01:29:12.983Z,30.89
2019-06-07T01:30:13.422Z,35.48
2019-06-07T01:31:13.853Z,33.65
2019-06-07T01:32:14.287Z,32.89
2019-06-07T01:33:15.683Z,33.56
2019-06-07T01:34:16.087Z,34.52
2019-06-07T01:35:16.592Z,35.10
2019-06-07T01:36:17.825Z,36.72
2019-06-07T01:37:16.920Z,35.38
2019-06-07T01:38:17.843Z,37.11
2019-06-07T01:39:18.704Z,36.82
2019-06-07T01:40:19.918Z,35.00
2019-06-07T01:41:23.052Z,34.33
2019-06-07T01:42:19.895Z,34.52
2019-06-07T01:43:19.520Z,35.57
2019-06-07T01:44:22.722Z,34.23
2019-06-07T01:45:21.226Z,36.82
2019-06-07T01:46:20.741Z,38.72
2019-06-07T01:47:24.730Z,40.66
2019-06-07T01:48:25.277Z,42.17
2019-06-07T01:49:22.192Z,41.60
2019-06-07T01:50:24.820Z,39.48
2019-06-07T01:51:24.293Z,38.81
2019-06-07T01:52:24.841Z,36.71
2019-06-07T01:53:25.746Z,39.39
2019-06-07T01:54:52.111Z,39.01
2019-06-07T01:55:28.743Z,40.16
2019-06-07T01:56:29.241Z,40.73
2019-06-07T01:57:43.180Z,41.21
2019-06-07T01:58:28.805Z,38.53
2019-06-07T01:59:28.463Z,39.87
2019-06-07T02:00:29.422Z,38.14
2019-06-07T02:01:34.701Z,38.43
2019-06-07T02:02:30.011Z,39.20
2019-06-07T02:03:30.667Z,38.05
2019-06-07T02:04:32.443Z,38.81
2019-06-07T02:05:30.994Z,38.72
2019-06-07T02:06:31.924Z,37.38
2019-06-07T02:07:32.933Z,37.85
2019-06-07T02:08:34.235Z,37.76
2019-06-07T02:09:32.070Z,37.18
2019-06-07T02:10:33.472Z,37.09
2019-06-07T02:11:31.923Z,35.84
2019-06-07T02:12:40.769Z,38.05
2019-06-07T02:13:32.111Z,37.95
2019-06-07T02:14:33.862Z,37.38
2019-06-07T02:15:36.563Z,35.65
2019-06-07T02:16:33.419Z,35.55
2019-06-07T02:17:33.873Z,35.36
2019-06-07T02:18:35.069Z,34.12
2019-06-07T02:19:34.729Z,34.88
2019-06-07T02:20:35.158Z,35.55
2019-06-07T02:21:35.609Z,33.25
2019-06-07T02:22:36.039Z,33.73
2019-06-07T02:23:36.462Z,34.22
2019-06-07T02:24:36.962Z,35.17
2019-06-07T02:25:46.516Z,34.12
2019-06-07T02:26:37.771Z,35.08
2019-06-07T02:27:38.202Z,33.83
2019-06-07T02:28:45.341Z,32.59
2019-06-07T02:29:39.071Z,34.88
2019-06-07T02:30:47.178Z,35.36
2019-06-07T02:31:40.129Z,34.98
2019-06-07T02:32:40.381Z,31.04
2019-06-07T02:33:40.811Z,30.67
2019-06-07T02:34:41.266Z,30.84
2019-06-07T02:35:41.705Z,31.61
2019-06-07T02:36:42.124Z,32.39
2019-06-07T02:37:42.562Z,30.96
2019-06-07T02:38:42.983Z,34.10
2019-06-07T02:39:43.424Z,34.00
2019-06-07T02:40:43.855Z,32.86
2019-06-07T02:41:44.296Z,32.18
2019-06-07T02:42:44.729Z,32.38
2019-06-07T02:43:45.161Z,33.14
2019-06-07T02:44:45.592Z,31.32
2019-06-07T02:45:46.029Z,31.13
2019-06-07T02:46:49.836Z,30.08
2019-06-07T02:47:46.896Z,29.79
2019-06-07T02:48:47.336Z,29.12
2019-06-07T02:49:47.767Z,28.92
2019-06-07T02:50:48.207Z,28.92
2019-06-07T02:51:48.693Z,28.74
2019-06-07T02:52:49.220Z,28.64
2019-06-07T02:53:49.502Z,29.41
2019-06-07T02:54:49.938Z,29.69
2019-06-07T02:56:34.037Z,28.83
2019-06-07T02:56:58.167Z,27.59
2019-06-07T02:57:51.236Z,29.02
2019-06-07T02:58:51.679Z,28.26
2019-06-07T03:00:06.343Z,25.96
2019-06-07T03:01:06.552Z,28.16
2019-06-07T03:01:53.012Z,27.49
2019-06-07T03:02:53.418Z,27.11
2019-06-07T03:03:55.357Z,27.87
2019-06-07T03:04:54.284Z,28.35
2019-06-07T03:05:54.713Z,26.63
2019-06-07T03:06:56.357Z,26.63
2019-06-07T03:07:55.587Z,27.20
2019-06-07T03:08:56.022Z,25.19
2019-06-07T03:09:56.453Z,25.48
2019-06-07T03:10:56.891Z,25.48
2019-06-07T03:11:57.323Z,25.19
2019-06-07T03:12:57.760Z,25.19
2019-06-07T03:13:58.195Z,25.29
2019-06-07T03:14:58.639Z,25.86
2019-06-07T03:15:59.076Z,25.67
2019-06-07T03:16:59.497Z,26.06
2019-06-07T03:17:59.932Z,25.00
2019-06-07T03:19:00.364Z,22.51
2019-06-07T03:20:00.804Z,24.14
2019-06-07T03:21:05.310Z,25.57
2019-06-07T03:22:01.672Z,26.64
2019-06-07T03:23:02.136Z,27.79
2019-06-07T03:24:02.545Z,26.83
2019-06-07T03:25:02.987Z,27.60
2019-06-07T03:26:03.414Z,26.72
2019-06-07T03:27:34.331Z,25.48
2019-06-07T03:28:05.866Z,26.26
2019-06-07T03:29:04.766Z,26.74
2019-06-07T03:30:34.955Z,28.56
2019-06-07T03:31:05.585Z,28.66
2019-06-07T03:32:06.021Z,28.08
2019-06-07T03:33:06.457Z,28.85
2019-06-07T03:34:06.887Z,28.85
2019-06-07T03:35:07.325Z,30.09
2019-06-07T03:36:23.301Z,29.23
2019-06-07T03:37:08.190Z,31.43
2019-06-07T03:38:08.632Z,32.59
2019-06-07T03:39:09.062Z,31.24
2019-06-07T03:40:09.500Z,32.29
2019-06-07T03:41:09.952Z,31.34
2019-06-07T03:42:10.440Z,33.35
2019-06-07T03:43:10.809Z,34.22
2019-06-07T03:44:11.238Z,35.28
2019-06-07T03:45:11.674Z,35.84
2019-06-07T03:46:12.105Z,36.80
2019-06-07T03:47:12.548Z,39.39
2019-06-07T03:48:12.981Z,39.70
2019-06-07T03:49:13.416Z,38.05
2019-06-07T03:50:13.851Z,39.20
2019-06-07T03:51:24.794Z,38.72
2019-06-07T03:52:14.731Z,38.16
2019-06-07T03:53:15.154Z,37.68
2019-06-07T03:54:15.617Z,40.56
2019-06-07T03:55:16.026Z,38.91
2019-06-07T03:56:16.488Z,37.11
2019-06-07T03:57:16.899Z,39.50
2019-06-07T03:58:31.326Z,40.94
2019-06-07T03:59:17.766Z,41.90
2019-06-07T04:00:18.209Z,41.71
2019-06-07T04:01:18.640Z,41.04
2019-06-07T04:02:19.072Z,39.39
2019-06-07T04:03:33.273Z,38.72
2019-06-07T04:04:19.943Z,40.47
2019-06-07T04:05:20.381Z,40.17
2019-06-07T04:06:20.875Z,40.37
2019-06-07T04:07:21.252Z,39.98
2019-06-07T04:08:21.698Z,38.35
2019-06-07T04:09:22.117Z,37.78
2019-06-07T04:10:45.864Z,37.66
2019-06-07T04:11:22.994Z,38.14
2019-06-07T04:12:23.438Z,38.64
2019-06-07T04:13:23.870Z,39.41
2019-06-07T04:14:24.365Z,39.22
2019-06-07T04:15:24.741Z,40.08
2019-06-07T04:16:25.173Z,40.16
2019-06-07T04:17:25.608Z,39.98
2019-06-07T04:18:26.045Z,39.31
2019-06-07T04:19:26.497Z,40.84
2019-06-07T04:20:29.191Z,39.22
2019-06-07T04:21:29.720Z,38.74
2019-06-07T04:22:28.856Z,37.76
2019-06-07T04:23:32.807Z,37.87
2019-06-07T04:24:28.714Z,37.20
2019-06-07T04:25:31.647Z,37.20
2019-06-07T04:26:31.391Z,36.44
2019-06-07T04:27:30.638Z,36.15
2019-06-07T04:29:24.869Z,36.91
2019-06-07T04:29:35.643Z,35.27
2019-06-07T04:30:34.122Z,35.84
2019-06-07T04:31:32.665Z,35.84
2019-06-07T04:32:33.855Z,36.61
2019-06-07T04:33:34.965Z,36.32
2019-06-07T04:34:36.440Z,36.13
2019-06-07T04:35:34.860Z,36.80
2019-06-07T04:36:47.510Z,38.24
2019-06-07T04:37:38.019Z,39.01
2019-06-07T04:38:39.313Z,38.91
2019-06-07T04:39:37.850Z,40.25
2019-06-07T04:40:36.857Z,39.29
2019-06-07T04:41:37.213Z,40.25
2019-06-07T04:42:39.167Z,41.21
2019-06-07T04:43:38.702Z,40.75
2019-06-07T04:44:41.069Z,41.31
2019-06-07T04:45:46.263Z,43.90
2019-06-07T04:46:40.767Z,44.56
2019-06-07T04:47:42.067Z,45.23
2019-06-07T04:48:43.270Z,42.84
2019-06-07T04:51:12.732Z,44.56
2019-06-07T04:52:13.144Z,44.66
2019-06-07T04:54:07.709Z,47.17
2019-06-07T04:55:08.215Z,46.98
2019-06-07T04:57:08.776Z,44.97
2019-06-07T04:58:09.192Z,45.16
2019-06-07T05:00:46.681Z,44.40
2019-06-07T05:01:26.325Z,44.40
2019-06-07T05:03:03.063Z,45.26
2019-06-07T05:04:03.534Z,47.25
2019-06-07T05:05:58.054Z,47.46
2019-06-07T05:06:58.498Z,48.21
2019-06-07T05:08:53.064Z,50.92
2019-06-07T05:09:53.502Z,51.59
2019-06-07T05:11:48.055Z,50.82
2019-06-07T05:12:48.491Z,48.71
2019-06-07T05:14:44.403Z,44.56
2019-06-07T05:15:44.474Z,47.06
2019-06-07T05:17:44.797Z,47.53
2019-06-07T05:18:43.086Z,49.45
2019-06-07T05:20:36.155Z,49.86
2019-06-07T05:21:54.192Z,51.10
2019-06-07T05:24:06.681Z,52.74
2019-06-07T05:24:36.517Z,56.00
2019-06-07T05:26:26.051Z,56.38
2019-06-07T05:27:26.493Z,55.21
2019-06-07T05:29:21.068Z,52.91
2019-06-07T05:30:59.813Z,49.16
2019-06-07T05:32:17.057Z,51.59
2019-06-07T05:33:17.507Z,54.75
2019-06-07T05:35:13.151Z,57.53
2019-06-07T05:36:13.487Z,56.86
2019-06-07T05:38:08.107Z,58.52
2019-06-07T05:40:48.091Z,58.04
2019-06-07T05:41:44.423Z,59.58
2019-06-07T05:43:41.086Z,62.26
2019-06-07T05:44:39.952Z,63.60
2019-06-07T05:46:37.878Z,63.60
2019-06-07T05:47:39.978Z,67.16
2019-06-07T05:49:29.628Z,65.72
2019-06-07T05:50:43.674Z,65.81
2019-06-07T05:52:25.613Z,64.85
2019-06-07T05:53:26.054Z,70.23
2019-06-07T05:55:20.634Z,68.34
2019-06-07T05:56:21.065Z,67.67
2019-06-07T05:58:16.640Z,67.16
2019-06-07T05:59:17.054Z,67.47
2019-06-07T06:01:42.131Z,65.05
2019-06-07T06:02:22.268Z,67.19
2019-06-07T06:04:06.656Z,71.93
2019-06-07T06:05:07.127Z,73.18
2019-06-07T06:07:01.692Z,76.19
2019-06-07T06:08:02.110Z,78.06
2019-06-07T06:09:56.696Z,85.83
2019-06-07T06:10:57.157Z,88.47
2019-06-07T06:12:52.213Z,88.70
2019-06-07T06:14:06.744Z,88.65
2019-06-07T06:16:02.505Z,87.34
2019-06-07T06:17:02.002Z,86.27
2019-06-07T06:18:56.594Z,84.13
2019-06-07T06:19:57.030Z,81.27
2019-06-07T06:21:51.654Z,82.18
2019-06-07T06:22:52.084Z,79.32
2019-06-07T06:25:22.539Z,75.32
2019-06-07T06:25:56.273Z,73.13
2019-06-07T06:28:05.900Z,67.57
2019-06-07T06:28:45.267Z,67.63
2019-06-07T06:30:41.028Z,70.01
2019-06-07T06:31:48.467Z,72.06
2019-06-07T06:33:34.981Z,74.23
2019-06-07T06:34:34.222Z,73.57
2019-06-07T06:36:29.779Z,69.12
2019-06-07T06:37:30.229Z,66.40
2019-06-07T06:39:24.833Z,69.32
2019-06-07T06:40:25.274Z,63.81
2019-06-07T06:42:19.872Z,62.78
2019-06-07T06:43:20.328Z,63.07
2019-06-07T06:45:14.943Z,62.42
2019-06-07T06:46:31.806Z,61.25
2019-06-07T06:48:10.961Z,61.68
2019-06-07T06:49:11.415Z,62.16
2019-06-07T06:51:06.033Z,58.89
2019-06-07T06:52:06.471Z,57.95
2019-06-07T06:54:01.081Z,55.41
2019-06-07T06:55:01.567Z,55.54
2019-06-07T06:57:17.959Z,51.61
2019-06-07T06:57:56.586Z,52.58
2019-06-07T06:59:52.833Z,51.46
2019-06-07T07:01:05.312Z,51.07
2019-06-07T07:03:40.680Z,54.35
2019-06-07T07:04:09.173Z,54.70
2019-06-07T07:05:43.423Z,55.07
2019-06-07T07:08:19.215Z,53.77
2019-06-07T07:10:54.913Z,51.82
2019-06-07T07:12:10.212Z,50.16
2019-06-07T07:13:51.721Z,49.12
2019-06-07T07:14:50.274Z,52.34
2019-06-07T07:16:45.788Z,52.96
2019-06-07T07:17:54.836Z,50.65
2019-06-07T07:19:38.026Z,52.44
2019-06-07T07:20:38.542Z,50.99
2019-06-07T07:22:33.096Z,46.61
2019-06-07T07:23:33.559Z,44.69
2019-06-07T07:25:29.158Z,41.50
2019-06-07T07:26:29.626Z,41.19
2019-06-07T07:28:28.718Z,42.65
2019-06-07T07:29:29.196Z,42.35
2019-06-07T07:31:23.798Z,43.92
2019-06-07T07:32:24.257Z,47.33
2019-06-07T07:34:33.763Z,47.25
2019-06-07T07:35:19.332Z,46.20
2019-06-07T07:37:13.948Z,45.72
2019-06-07T07:38:14.412Z,46.40
2019-06-07T07:40:55.432Z,44.76
2019-06-07T07:41:15.609Z,44.89
2019-06-07T07:43:05.091Z,45.03
2019-06-07T07:44:07.586Z,46.27
2019-06-07T07:46:03.468Z,45.22
2019-06-07T07:47:00.635Z,42.76
2019-06-07T07:48:56.196Z,42.88
2019-06-07T07:49:58.623Z,42.94
2019-06-07T07:52:15.529Z,44.41
2019-06-07T07:53:16.013Z,48.57
2019-06-07T07:54:16.454Z,49.29
2019-06-07T07:55:16.965Z,46.59
2019-06-07T07:56:17.385Z,46.37
2019-06-07T07:57:17.857Z,47.96
2019-06-07T07:58:18.348Z,46.54
2019-06-07T07:59:18.773Z,47.47
2019-06-07T08:00:50.017Z,47.73
2019-06-07T08:01:19.706Z,46.37
2019-06-07T08:02:20.169Z,45.81
2019-06-07T08:03:20.838Z,44.56
2019-06-07T08:04:29.426Z,43.80
2019-06-07T08:05:29.057Z,42.54
2019-06-07T08:06:22.034Z,43.18
2019-06-07T08:07:22.498Z,42.88
2019-06-07T08:08:22.963Z,46.56
2019-06-07T08:09:23.440Z,45.32
2019-06-07T08:10:23.904Z,44.66
2019-06-07T08:11:24.367Z,43.47
2019-06-07T08:12:24.836Z,44.13
2019-06-07T08:13:27.302Z,45.28
2019-06-07T08:14:25.769Z,45.08
2019-06-07T08:15:26.241Z,46.44
2019-06-07T08:16:26.696Z,46.64
2019-06-07T08:17:27.172Z,46.32
2019-06-07T08:18:27.689Z,46.25
2019-06-07T08:19:28.102Z,46.37
2019-06-07T08:20:28.566Z,45.22
2019-06-07T08:21:29.064Z,45.03
2019-06-07T08:22:29.503Z,44.34
2019-06-07T08:23:30.101Z,44.20
2019-06-07T08:24:30.443Z,46.88
2019-06-07T08:25:30.909Z,48.49
2019-06-07T08:26:31.588Z,49.95
2019-06-07T08:27:31.836Z,49.56
2019-06-07T08:28:32.321Z,48.10
2019-06-07T08:29:44.380Z,49.27
2019-06-07T08:30:55.027Z,45.65
2019-06-07T08:31:33.702Z,44.60
2019-06-07T08:32:34.183Z,44.34
2019-06-07T08:33:34.636Z,43.08
2019-06-07T08:34:35.117Z,44.76
2019-06-07T08:36:42.137Z,47.30
2019-06-07T08:38:14.226Z,48.00
2019-06-07T08:38:47.584Z,46.20
2019-06-07T08:39:37.450Z,45.75
2019-06-07T08:40:37.980Z,43.68
2019-06-07T08:41:53.479Z,46.40
2019-06-07T08:42:59.473Z,45.42
2019-06-07T08:43:39.316Z,45.92
2019-06-07T08:44:39.780Z,45.21
2019-06-07T08:45:40.247Z,41.83
2019-06-07T08:46:40.715Z,40.66
2019-06-07T08:47:41.190Z,40.84
2019-06-07T08:48:41.656Z,39.94
2019-06-07T08:49:42.119Z,41.44
2019-06-07T08:50:42.658Z,39.37
2019-06-07T08:51:43.061Z,39.18
2019-06-07T08:52:43.524Z,41.36
2019-06-07T08:54:02.457Z,41.82
2019-06-07T08:54:44.464Z,40.09
2019-06-07T08:55:44.936Z,41.36
2019-06-07T08:56:45.401Z,41.87
2019-06-07T08:57:45.864Z,41.44
2019-06-07T08:58:46.336Z,39.18
2019-06-07T08:59:46.805Z,38.79
2019-06-07T09:00:48.021Z,39.16
2019-06-07T09:01:47.739Z,39.08
2019-06-07T09:02:48.214Z,39.67
2019-06-07T09:03:48.682Z,39.47
2019-06-07T09:04:49.147Z,38.59
2019-06-07T09:05:49.619Z,38.90
2019-06-07T09:07:19.755Z,38.92
2019-06-07T09:08:13.348Z,38.43
2019-06-07T09:08:51.975Z,42.14
2019-06-07T09:09:59.772Z,42.69
2019-06-07T09:10:54.042Z,45.84
2019-06-07T09:11:52.673Z,46.28
2019-06-07T09:12:54.422Z,44.09
2019-06-07T09:13:55.497Z,43.58
2019-06-07T09:15:06.245Z,44.06
2019-06-07T09:15:55.966Z,44.84
2019-06-07T09:17:00.432Z,45.14
2019-06-07T09:18:34.833Z,45.89
2019-06-07T09:18:58.492Z,46.08
2019-06-07T09:19:58.191Z,46.18
2019-06-07T09:20:58.185Z,46.15
2019-06-07T09:22:01.579Z,46.91
2019-06-07T09:23:06.189Z,48.27
2019-06-07T09:24:02.959Z,50.19
2019-06-07T09:25:05.915Z,51.76
2019-06-07T09:26:07.930Z,50.24
2019-06-07T09:27:02.396Z,50.46
2019-06-07T09:28:08.019Z,50.07
2019-06-07T09:29:01.370Z,49.22
2019-06-07T09:30:04.626Z,48.73
2019-06-07T09:31:07.833Z,48.03
2019-06-07T09:32:05.810Z,46.20
2019-06-07T09:33:05.377Z,45.98
2019-06-07T09:34:07.968Z,46.37
2019-06-07T09:35:10.634Z,46.34
2019-06-07T09:36:07.938Z,45.57
2019-06-07T09:37:54.798Z,48.27
2019-06-07T09:38:22.536Z,45.08
2019-06-07T09:39:08.281Z,46.32
2019-06-07T09:40:20.457Z,45.86
2019-06-07T09:41:07.459Z,48.00
2019-06-07T09:42:10.063Z,48.41
2019-06-07T09:43:55.355Z,46.42
2019-06-07T09:44:23.251Z,45.47
2019-06-07T09:45:11.679Z,43.73
2019-06-07T09:46:12.995Z,41.17
2019-06-07T09:47:30.256Z,38.39
2019-06-07T09:48:14.629Z,38.04
2019-06-07T09:49:18.319Z,37.62
2019-06-07T09:50:12.344Z,35.31
2019-06-07T09:51:19.237Z,33.34
2019-06-07T09:52:11.191Z,32.82
2019-06-07T09:53:21.909Z,33.43
2019-06-07T09:55:02.347Z,32.90
2019-06-07T09:55:23.788Z,32.69
2019-06-07T09:56:12.638Z,33.89
2019-06-07T09:57:17.285Z,34.00
2019-06-07T09:59:14.053Z,31.35
2019-06-07T10:00:39.129Z,32.59
2019-06-07T10:01:15.006Z,33.00
2019-06-07T10:02:15.462Z,33.84
2019-06-07T10:03:21.372Z,31.77
2019-06-07T10:04:28.542Z,35.21
2019-06-07T10:05:16.884Z,33.72
2019-06-07T10:06:17.350Z,32.15
2019-06-07T10:07:31.236Z,32.14
2019-06-07T10:09:26.279Z,32.07
2019-06-07T10:11:19.716Z,31.85
2019-06-07T10:12:20.195Z,32.72
2019-06-07T10:13:20.660Z,31.95
2019-06-07T10:14:21.182Z,32.24
2019-06-07T10:15:21.608Z,31.64
2019-06-07T10:16:22.116Z,34.23
2019-06-07T10:17:22.565Z,39.33
2019-06-07T10:18:23.031Z,36.01
2019-06-07T10:19:23.531Z,32.93
2019-06-07T10:20:23.978Z,32.87
2019-06-07T10:21:24.441Z,34.06
2019-06-07T10:22:24.936Z,35.22
2019-06-07T10:23:25.384Z,36.35
2019-06-07T10:24:25.860Z,33.84
2019-06-07T10:25:26.327Z,33.58
2019-06-07T10:26:26.812Z,32.71
2019-06-07T10:27:27.277Z,32.71
2019-06-07T10:28:27.745Z,32.02
2019-06-07T10:29:28.215Z,32.04
2019-06-07T10:30:28.688Z,31.89
2019-06-07T10:31:29.159Z,33.77
2019-06-07T10:32:29.633Z,34.54
2019-06-07T10:33:30.112Z,35.32
2019-06-07T10:34:30.578Z,36.51
2019-06-07T10:35:31.123Z,34.55
2019-06-07T10:36:31.525Z,34.84
2019-06-07T10:37:31.984Z,34.81
2019-06-07T10:38:32.465Z,34.61
2019-06-07T10:39:47.674Z,33.94
2019-06-07T10:40:33.430Z,33.34
2019-06-07T10:41:33.866Z,32.95
2019-06-07T10:42:34.353Z,32.56
2019-06-07T10:43:34.815Z,33.15
2019-06-07T10:44:35.286Z,34.21
2019-06-07T10:45:35.758Z,33.75
2019-06-07T10:46:36.228Z,34.42
2019-06-07T10:47:36.709Z,36.93
2019-06-07T10:48:37.170Z,36.96
2019-06-07T10:49:37.647Z,36.02
2019-06-07T10:50:38.116Z,34.77
2019-06-07T10:51:38.595Z,34.61
2019-06-07T10:52:39.059Z,32.95
2019-06-07T10:53:39.530Z,34.08
2019-06-07T10:54:39.999Z,35.14
2019-06-07T10:55:40.473Z,34.67
2019-06-07T10:56:40.948Z,34.11
2019-06-07T10:57:41.424Z,34.00
2019-06-07T10:58:41.879Z,33.74
2019-06-07T10:59:42.367Z,33.14
2019-06-07T11:00:42.835Z,34.15
2019-06-07T11:01:43.316Z,34.25
2019-06-07T11:02:43.780Z,31.74
2019-06-07T11:03:44.247Z,31.26
2019-06-07T11:04:44.738Z,31.54
2019-06-07T11:05:45.190Z,31.82
2019-06-07T11:06:45.667Z,32.54
2019-06-07T11:07:46.143Z,33.74
2019-06-07T11:08:46.613Z,33.05
2019-06-07T11:09:47.081Z,33.53
2019-06-07T11:10:47.555Z,33.98
2019-06-07T11:11:48.031Z,34.84
2019-06-07T11:12:48.493Z,36.07
2019-06-07T11:13:52.264Z,37.12
2019-06-07T11:14:49.429Z,36.96
2019-06-07T11:15:49.903Z,36.40
2019-06-07T11:16:50.370Z,37.12
2019-06-07T11:17:50.838Z,38.28
2019-06-07T11:18:51.302Z,38.75
2019-06-07T11:19:51.778Z,38.84
2019-06-07T11:20:52.284Z,38.30
2019-06-07T11:21:52.726Z,38.61
2019-06-07T11:22:53.178Z,36.30
2019-06-07T11:23:53.646Z,36.16
2019-06-07T11:24:54.111Z,37.12
2019-06-07T11:25:54.590Z,38.28
2019-06-07T11:26:55.049Z,39.43
2019-06-07T11:27:55.522Z,39.43
2019-06-07T11:28:55.985Z,38.59
2019-06-07T11:29:56.461Z,37.55
2019-06-07T11:30:56.927Z,36.26
2019-06-07T11:31:57.396Z,36.07
2019-06-07T11:32:57.862Z,37.32
2019-06-07T11:33:58.339Z,38.10
2019-06-07T11:34:58.801Z,37.62
2019-06-07T11:35:59.271Z,38.28
2019-06-07T11:36:59.736Z,38.06
2019-06-07T11:38:00.206Z,39.14
2019-06-07T11:39:00.663Z,40.23
2019-06-07T11:40:01.137Z,42.24
2019-06-07T11:41:01.589Z,43.96
2019-06-07T11:42:02.053Z,44.72
2019-06-07T11:43:02.513Z,45.65
2019-06-07T11:44:02.973Z,46.33
2019-06-07T11:45:03.438Z,46.14
2019-06-07T11:46:03.883Z,45.94
2019-06-07T11:47:04.349Z,46.42
2019-06-07T11:48:04.800Z,47.57
2019-06-07T11:49:06.336Z,46.48
2019-06-07T11:50:05.714Z,47.72
2019-06-07T11:51:06.709Z,49.44
2019-06-07T11:52:07.344Z,53.33
2019-06-07T11:53:08.518Z,52.32
2019-06-07T11:54:07.847Z,50.12
2019-06-07T11:55:09.034Z,49.90
2019-06-07T11:56:10.218Z,50.77
2019-06-07T11:57:08.906Z,52.39
2019-06-07T11:58:13.420Z,52.00
2019-06-07T11:59:11.086Z,52.58
2019-06-07T12:00:11.516Z,53.45
2019-06-07T12:01:11.861Z,53.65
2019-06-07T12:02:11.442Z,53.72
2019-06-07T12:03:11.671Z,54.59
2019-06-07T12:04:12.036Z,54.11
2019-06-07T12:05:16.169Z,54.43
2019-06-07T12:06:14.581Z,53.72
2019-06-07T12:07:14.171Z,54.13
2019-06-07T12:08:14.053Z,54.71
2019-06-07T12:09:14.481Z,54.03
2019-06-07T12:10:18.152Z,53.85
2019-06-07T12:11:16.393Z,54.81
2019-06-07T12:12:16.603Z,53.97
2019-06-07T12:13:17.404Z,52.49
2019-06-07T12:14:16.827Z,53.65
2019-06-07T12:15:17.393Z,53.65
2019-06-07T12:16:17.514Z,53.94
2019-06-07T12:17:17.860Z,53.75
2019-06-07T12:18:19.682Z,53.65
2019-06-07T12:19:19.767Z,53.65
2019-06-07T12:20:20.983Z,54.33
2019-06-07T12:21:19.965Z,53.85
2019-06-07T12:22:20.184Z,53.75
2019-06-07T12:23:20.542Z,54.16
2019-06-07T12:24:21.227Z,54.45
2019-06-07T12:25:24.780Z,54.06
2019-06-07T12:26:21.884Z,53.97
2019-06-07T12:27:22.337Z,53.65
2019-06-07T12:28:22.836Z,55.20
2019-06-07T12:30:56.366Z,54.98
2019-06-07T12:31:56.802Z,54.69
2019-06-07T12:33:51.609Z,54.79
2019-06-07T12:34:51.864Z,55.94
2019-06-07T12:36:46.412Z,56.40
2019-06-07T12:37:46.932Z,56.21
2019-06-07T12:39:41.786Z,56.21
2019-06-07T12:42:16.233Z,56.62
2019-06-07T12:43:16.736Z,56.14
2019-06-07T12:45:10.082Z,56.62
2019-06-07T12:46:14.504Z,56.82
2019-06-07T12:48:05.173Z,56.72
2019-06-07T12:49:05.558Z,57.30
2019-06-07T12:51:01.125Z,56.52
2019-06-07T12:52:01.562Z,57.59
2019-06-07T12:53:56.187Z,57.30
2019-06-07T12:54:56.584Z,56.82
2019-06-07T12:57:07.771Z,56.72
2019-06-07T12:58:08.219Z,56.60
2019-06-07T13:00:02.985Z,57.37
2019-06-07T13:01:03.275Z,58.04
2019-06-07T13:02:57.852Z,58.34
2019-06-07T13:03:58.300Z,58.44
2019-06-07T13:05:52.906Z,57.98
2019-06-07T13:06:53.332Z,57.88
2019-06-07T13:08:47.914Z,59.43
2019-06-07T13:09:48.359Z,58.49
2019-06-07T13:11:42.952Z,57.62
2019-06-07T13:12:44.187Z,57.33
2019-06-07T13:14:37.981Z,56.46
2019-06-07T13:15:38.414Z,56.26
2019-06-07T13:17:33.039Z,56.65
2019-06-07T13:18:33.467Z,57.23
2019-06-07T13:20:28.864Z,56.75
2019-06-07T13:21:28.719Z,57.33
2019-06-07T13:23:24.347Z,57.62
2019-06-07T13:24:25.195Z,57.43
2019-06-07T13:26:20.505Z,57.26
2019-06-07T13:27:20.381Z,57.36
2019-06-07T13:29:14.149Z,56.29
2019-06-07T13:30:14.591Z,56.59
2019-06-07T13:32:10.165Z,56.77
2019-06-07T13:33:10.641Z,56.87
2019-06-07T13:35:06.194Z,57.07
2019-06-07T13:36:06.634Z,57.17
2019-06-07T13:38:01.219Z,56.77
2019-06-07T13:39:01.663Z,56.77
2019-06-07T13:40:56.260Z,56.77
2019-06-07T13:41:56.696Z,56.46
2019-06-07T13:43:52.266Z,56.65
2019-06-07T13:44:52.704Z,56.59
2019-06-07T13:46:47.302Z,56.56
2019-06-07T13:47:47.739Z,56.29
2019-06-07T13:49:43.332Z,57.23
2019-06-07T13:50:43.753Z,57.71
2019-06-07T13:52:39.928Z,57.43
2019-06-07T13:53:38.780Z,57.55
2019-06-07T13:55:33.381Z,56.68
2019-06-07T13:56:33.826Z,56.32
2019-06-07T13:58:28.771Z,55.93
2019-06-07T13:59:28.886Z,55.54
2019-06-07T14:01:24.743Z,55.93
2019-06-07T14:02:26.105Z,55.93
2019-06-07T14:04:20.924Z,55.44
2019-06-07T14:05:21.044Z,55.44
2019-06-07T14:07:15.522Z,55.83
2019-06-07T14:08:15.962Z,55.93
2019-06-07T14:10:11.940Z,55.93
2019-06-07T14:11:11.985Z,55.83
2019-06-07T14:13:07.554Z,56.23
2019-06-07T14:14:08.000Z,55.93
2019-06-07T14:16:03.583Z,55.71
2019-06-07T14:17:04.015Z,55.81
2019-06-07T14:18:59.585Z,56.87
2019-06-07T14:20:00.037Z,56.97
2019-06-07T14:21:54.633Z,56.81
2019-06-07T14:22:55.066Z,56.81
2019-06-07T14:24:49.661Z,56.51
2019-06-07T14:25:50.108Z,56.61
2019-06-07T14:27:45.703Z,56.71
2019-06-07T14:28:46.149Z,56.81
2019-06-07T14:30:40.737Z,56.71
2019-06-07T14:31:41.176Z,57.09
2019-06-07T14:33:35.835Z,56.87
2019-06-07T14:34:36.212Z,56.77
2019-06-07T14:36:31.157Z,56.87
2019-06-07T14:37:31.282Z,57.00
2019-06-07T14:39:27.112Z,56.81
2019-06-07T14:40:27.663Z,56.41
2019-06-07T14:42:20.944Z,56.25
2019-06-07T14:43:21.382Z,56.25
2019-06-07T14:45:15.973Z,56.23
2019-06-07T14:46:16.417Z,56.83
2019-06-07T14:48:11.013Z,56.51
2019-06-07T14:49:11.454Z,56.71
2019-06-07T14:51:06.049Z,55.87
2019-06-07T14:52:06.502Z,56.83
2019-06-07T14:54:01.071Z,56.35
2019-06-07T14:55:01.527Z,56.18
2019-06-07T14:56:56.115Z,55.67
2019-06-07T14:57:56.550Z,55.02
2019-06-07T14:59:51.137Z,55.50
2019-06-07T15:00:51.586Z,56.28
2019-06-07T15:02:46.181Z,55.50
2019-06-07T15:03:46.637Z,55.21
2019-06-07T15:05:41.196Z,55.57
2019-06-07T15:06:41.650Z,56.05
2019-06-07T15:08:36.240Z,56.35
2019-06-07T15:09:36.668Z,55.69
2019-06-07T15:11:33.114Z,56.74
2019-06-07T15:12:33.227Z,56.15
2019-06-07T15:14:29.299Z,57.29
2019-06-07T15:15:28.708Z,57.29
2019-06-07T15:17:23.309Z,57.87
2019-06-07T15:18:23.756Z,56.45